createdAt,value
2019-06-07T00:00:44.049Z,11.40
2019-06-07T00:03:23.902Z,11.40
2019-06-07T00:05:43.703Z,11.40
2019-06-07T00:08:21.337Z,11.40
2019-06-07T00:10:43.635Z,11.30
2019-06-07T00:13:16.583Z,11.30
2019-06-07T00:15:43.681Z,11.30
2019-06-07T00:18:15.069Z,11.30
2019-06-07T00:20:43.959Z,11.30
2019-06-07T00:23:15.889Z,11.30
2019-06-07T00:25:43.614Z,11.20
2019-06-07T00:28:13.248Z,11.20
2019-06-07T00:30:51.537Z,11.20
2019-06-07T00:33:18.428Z,11.20
2019-06-07T00:35:45.287Z,11.10
2019-06-07T00:38:14.903Z,11.10
2019-06-07T00:40:45.108Z,11.10
2019-06-07T00:43:17.068Z,11.10
2019-06-07T00:45:44.657Z,11.10
2019-06-07T00:48:19.555Z,11.00
2019-06-07T00:50:44.698Z,11.00
2019-06-07T00:53:17.494Z,11.00
2019-06-07T00:55:44.416Z,11.00
2019-06-07T00:58:14.854Z,11.00
2019-06-07T01:00:43.966Z,11.00
2019-06-07T01:03:14.815Z,10.90
2019-06-07T01:05:43.723Z,10.90
2019-06-07T01:08:14.924Z,10.90
2019-06-07T01:10:58.567Z,10.80
2019-06-07T01:13:15.495Z,10.80
2019-06-07T01:15:45.318Z,10.80
2019-06-07T01:20:44.836Z,10.70
2019-06-07T01:23:54.335Z,10.80
2019-06-07T01:25:45.598Z,10.70
2019-06-07T01:28:16.406Z,10.60
2019-06-07T01:30:45.321Z,10.60
2019-06-07T01:33:14.086Z,10.60
2019-06-07T01:35:43.419Z,10.50
2019-06-07T01:38:12.525Z,10.50
2019-06-07T01:40:41.649Z,10.50
2019-06-07T01:43:10.554Z,10.50
2019-06-07T01:45:39.724Z,10.40
2019-06-07T01:48:08.553Z,10.40
2019-06-07T01:50:37.320Z,10.40
2019-06-07T01:53:06.284Z,10.40
2019-06-07T01:55:35.419Z,10.40
2019-06-07T01:58:04.275Z,10.30
2019-06-07T02:00:33.372Z,10.30
2019-06-07T02:03:02.685Z,10.30
2019-06-07T02:05:32.445Z,10.30
2019-06-07T02:08:01.883Z,10.30
2019-06-07T02:10:33.631Z,10.30
2019-06-07T02:13:02.306Z,10.30
2019-06-07T02:15:36.263Z,10.30
2019-06-07T02:18:02.048Z,10.30
2019-06-07T02:20:34.262Z,10.30
2019-06-07T02:23:02.064Z,10.30
2019-06-07T02:25:45.871Z,10.30
2019-06-07T02:28:26.591Z,10.30
2019-06-07T02:30:44.073Z,10.30
2019-06-07T02:33:03.903Z,10.20
2019-06-07T02:35:38.837Z,10.20
2019-06-07T02:38:03.538Z,10.20
2019-06-07T02:40:36.970Z,10.10
2019-06-07T02:43:03.444Z,10.10
2019-06-07T02:45:37.621Z,10.00
2019-06-07T02:48:03.060Z,10.00
2019-06-07T02:50:38.338Z,10.00
2019-06-07T02:53:03.119Z,10.00
2019-06-07T02:55:44.721Z,10.00
2019-06-07T02:58:02.984Z,9.90
2019-06-07T03:01:00.264Z,10.00
2019-06-07T03:03:16.194Z,10.00
2019-06-07T03:05:46.320Z,9.90
2019-06-07T03:08:16.967Z,9.90
2019-06-07T03:10:47.242Z,9.90
2019-06-07T03:13:18.688Z,9.90
2019-06-07T03:15:50.335Z,9.80
2019-06-07T03:18:41.524Z,9.90
2019-06-07T03:21:12.986Z,9.90
2019-06-07T03:23:42.218Z,9.90
2019-06-07T03:26:11.332Z,9.90
2019-06-07T03:28:40.546Z,9.90
2019-06-07T03:31:09.309Z,9.90
2019-06-07T03:33:42.833Z,9.90
2019-06-07T03:36:23.210Z,9.90
2019-06-07T03:38:40.015Z,9.90
2019-06-07T03:41:09.734Z,9.90
2019-06-07T03:43:40.631Z,9.90
2019-06-07T03:46:09.463Z,9.90
2019-06-07T03:48:41.110Z,9.90
2019-06-07T03:51:24.074Z,9.90
2019-06-07T03:53:40.851Z,10.00
2019-06-07T03:56:10.725Z,10.10
2019-06-07T03:58:48.994Z,10.10
2019-06-07T04:01:10.880Z,10.10
2019-06-07T04:03:46.926Z,10.20
2019-06-07T04:06:10.708Z,10.20
2019-06-07T04:08:42.213Z,10.20
2019-06-07T04:11:10.845Z,10.30
2019-06-07T04:13:42.760Z,10.40
2019-06-07T04:16:10.868Z,10.40
2019-06-07T04:18:41.878Z,10.50
2019-06-07T04:21:10.462Z,10.50
2019-06-07T04:23:45.288Z,10.60
2019-06-07T04:26:09.866Z,10.60
2019-06-07T04:29:30.229Z,10.70
2019-06-07T04:31:10.164Z,10.80
2019-06-07T04:33:43.187Z,10.80
2019-06-07T04:36:10.889Z,10.90
2019-06-07T04:38:42.584Z,11.00
2019-06-07T04:41:13.602Z,11.00
2019-06-07T04:43:42.966Z,11.10
2019-06-07T04:46:12.931Z,11.10
2019-06-07T04:48:44.219Z,11.20
2019-06-07T04:51:15.100Z,11.30
2019-06-07T04:53:44.268Z,11.30
2019-06-07T04:56:13.802Z,11.40
2019-06-07T04:58:43.134Z,11.40
2019-06-07T05:01:26.660Z,11.40
2019-06-07T05:03:44.244Z,11.40
2019-06-07T05:06:13.523Z,11.40
2019-06-07T05:08:43.935Z,11.50
2019-06-07T05:11:12.862Z,11.50
2019-06-07T05:13:43.827Z,11.60
2019-06-07T05:16:12.367Z,11.60
2019-06-07T05:18:43.233Z,11.60
2019-06-07T05:21:12.933Z,11.70
2019-06-07T05:24:05.767Z,11.70
2019-06-07T05:26:12.588Z,11.80
2019-06-07T05:28:42.929Z,11.90
2019-06-07T05:31:12.776Z,12.00
2019-06-07T05:33:43.678Z,12.10
2019-06-07T05:36:12.713Z,12.20
2019-06-07T05:38:44.798Z,12.20
2019-06-07T05:41:12.569Z,12.30
2019-06-07T05:43:49.412Z,12.40
2019-06-07T05:46:12.027Z,12.50
2019-06-07T05:48:42.482Z,12.60
2019-06-07T05:51:11.750Z,12.60
2019-06-07T05:53:42.444Z,12.70
2019-06-07T05:56:12.130Z,12.80
2019-06-07T05:58:43.340Z,12.80
2019-06-07T06:01:42.142Z,12.90
2019-06-07T06:03:44.102Z,13.00
2019-06-07T06:06:13.867Z,13.00
2019-06-07T06:08:45.244Z,13.10
2019-06-07T06:11:13.257Z,13.10
2019-06-07T06:14:01.484Z,13.20
2019-06-07T06:16:13.377Z,13.20
2019-06-07T06:18:44.337Z,13.30
2019-06-07T06:21:19.073Z,13.40
2019-06-07T06:23:45.853Z,13.40
2019-06-07T06:26:15.434Z,13.50
2019-06-07T06:28:45.406Z,13.50
2019-06-07T06:31:14.987Z,13.60
2019-06-07T06:33:45.204Z,13.60
2019-06-07T06:36:16.390Z,13.70
2019-06-07T06:38:47.139Z,13.70
2019-06-07T06:41:17.105Z,13.80
2019-06-07T06:43:50.312Z,13.90
2019-06-07T06:46:37.479Z,13.90
2019-06-07T06:48:54.719Z,14.00
2019-06-07T06:51:19.676Z,14.10
2019-06-07T06:53:49.878Z,14.20
2019-06-07T06:56:19.615Z,14.20
2019-06-07T06:59:27.333Z,14.20
2019-06-07T07:01:19.990Z,14.30
2019-06-07T07:04:09.144Z,14.40
2019-06-07T07:06:26.246Z,14.50
2019-06-07T07:08:53.956Z,14.60
2019-06-07T07:11:23.558Z,14.70
2019-06-07T07:13:56.735Z,14.70
2019-06-07T07:16:24.837Z,14.80
2019-06-07T07:18:54.706Z,14.90
2019-06-07T07:21:23.890Z,15.00
2019-06-07T07:24:19.650Z,15.00
2019-06-07T07:26:23.693Z,15.10
2019-06-07T07:28:57.120Z,15.20
2019-06-07T07:31:23.366Z,15.30
2019-06-07T07:34:30.930Z,15.50
2019-06-07T07:36:38.840Z,15.60
2019-06-07T07:39:00.715Z,15.80
2019-06-07T07:41:24.803Z,15.80
2019-06-07T07:44:05.544Z,15.80
2019-06-07T07:46:29.558Z,15.90
2019-06-07T07:48:56.209Z,16.10
2019-06-07T07:51:25.288Z,16.20
2019-06-07T07:54:09.156Z,16.30
2019-06-07T07:56:25.134Z,16.30
2019-06-07T07:59:00.222Z,16.40
2019-06-07T08:01:24.540Z,16.40
2019-06-07T08:03:54.863Z,16.50
2019-06-07T08:06:24.456Z,16.60
2019-06-07T08:08:55.741Z,16.70
2019-06-07T08:11:24.216Z,16.80
2019-06-07T08:13:56.947Z,16.90
2019-06-07T08:16:23.810Z,17.00
2019-06-07T08:18:57.002Z,17.20
2019-06-07T08:21:26.554Z,17.30
2019-06-07T08:23:58.188Z,17.40
2019-06-07T08:26:25.075Z,17.50
2019-06-07T08:28:58.391Z,17.60
2019-06-07T08:31:24.899Z,17.80
2019-06-07T08:33:57.033Z,17.90
2019-06-07T08:36:40.750Z,18.00
2019-06-07T08:39:00.612Z,18.10
2019-06-07T08:41:26.208Z,18.20
2019-06-07T08:43:56.887Z,18.30
2019-06-07T08:46:25.651Z,18.40
2019-06-07T08:48:57.168Z,18.60
2019-06-07T08:51:25.531Z,18.70
2019-06-07T08:54:18.906Z,18.80
2019-06-07T08:56:25.608Z,18.80
2019-06-07T08:58:56.924Z,18.90
2019-06-07T09:01:25.142Z,19.00
2019-06-07T09:03:59.834Z,19.10
2019-06-07T09:07:01.664Z,19.30
2019-06-07T09:08:56.130Z,19.40
2019-06-07T09:11:26.375Z,19.40
2019-06-07T09:13:57.221Z,19.50
2019-06-07T09:16:26.220Z,19.60
2019-06-07T09:18:58.409Z,19.70
2019-06-07T09:21:26.363Z,19.80
2019-06-07T09:23:57.262Z,19.90
2019-06-07T09:26:26.744Z,20.00
2019-06-07T09:28:57.923Z,20.00
2019-06-07T09:31:50.646Z,20.10
2019-06-07T09:34:04.165Z,20.20
2019-06-07T09:36:28.291Z,20.30
2019-06-07T09:39:01.396Z,20.40
2019-06-07T09:41:46.989Z,20.50
2019-06-07T09:44:13.187Z,20.60
2019-06-07T09:46:30.118Z,20.70
2019-06-07T09:49:14.318Z,20.80
2019-06-07T09:51:29.742Z,20.90
2019-06-07T09:54:01.242Z,20.90
2019-06-07T09:56:29.713Z,21.00
2019-06-07T09:59:00.382Z,21.20
2019-06-07T10:01:30.005Z,21.30
2019-06-07T10:04:04.578Z,21.40
2019-06-07T10:06:29.885Z,21.50
2019-06-07T10:10:04.696Z,21.60
2019-06-07T10:11:29.509Z,21.60
2019-06-07T10:13:58.729Z,21.80
2019-06-07T10:16:27.764Z,21.90
2019-06-07T10:18:57.400Z,22.10
2019-06-07T10:21:27.632Z,22.20
2019-06-07T10:23:56.641Z,22.10
2019-06-07T10:26:26.153Z,22.10
2019-06-07T10:28:55.002Z,22.20
2019-06-07T10:31:24.088Z,22.20
2019-06-07T10:33:53.711Z,22.30
2019-06-07T10:36:24.434Z,22.40
2019-06-07T10:38:53.292Z,22.50
2019-06-07T10:41:22.353Z,22.70
2019-06-07T10:43:51.402Z,22.80
2019-06-07T10:46:20.233Z,22.90
2019-06-07T10:48:49.120Z,22.90
2019-06-07T10:51:20.040Z,23.00
2019-06-07T10:53:48.817Z,23.20
2019-06-07T10:56:18.232Z,23.30
2019-06-07T10:58:47.051Z,23.50
2019-06-07T11:01:15.834Z,23.60
2019-06-07T11:03:44.667Z,23.70
2019-06-07T11:06:14.252Z,23.80
2019-06-07T11:08:43.646Z,23.90
2019-06-07T11:11:12.652Z,24.10
2019-06-07T11:13:41.627Z,24.20
2019-06-07T11:16:11.259Z,24.30
2019-06-07T11:18:40.425Z,24.40
2019-06-07T11:36:35.768Z,24.90
2019-06-07T11:39:06.547Z,25.10
2019-06-07T11:41:35.646Z,25.20
2019-06-07T11:44:06.589Z,25.30
2019-06-07T11:46:35.930Z,25.40
2019-06-07T11:49:06.309Z,25.40
2019-06-07T11:51:35.748Z,25.50
2019-06-07T11:54:04.769Z,25.50
2019-06-07T11:56:33.768Z,25.70
2019-06-07T11:59:02.627Z,25.80
2019-06-07T12:01:31.520Z,25.80
2019-06-07T12:04:00.616Z,25.90
2019-06-07T12:06:29.539Z,26.00
2019-06-07T12:08:58.393Z,26.10
2019-06-07T12:11:27.223Z,26.10
2019-06-07T12:13:56.463Z,26.10
2019-06-07T12:16:25.397Z,26.10
2019-06-07T12:18:54.599Z,26.10
2019-06-07T12:21:23.499Z,26.30
2019-06-07T12:23:52.471Z,26.40
2019-06-07T12:26:21.412Z,26.50
2019-06-07T12:28:50.373Z,26.60
2019-06-07T12:31:19.649Z,26.60
2019-06-07T12:33:48.540Z,26.50
2019-06-07T12:36:17.777Z,26.40
2019-06-07T12:38:46.767Z,26.40
2019-06-07T12:41:16.185Z,26.20
2019-06-07T12:43:45.129Z,26.10
2019-06-07T12:46:19.067Z,26.00
2019-06-07T12:48:45.007Z,26.10
2019-06-07T12:51:15.160Z,26.10
2019-06-07T12:53:44.758Z,26.00
2019-06-07T12:56:13.682Z,26.00
2019-06-07T12:58:42.571Z,26.00
2019-06-07T13:01:11.417Z,26.20
2019-06-07T13:03:40.355Z,26.30
2019-06-07T13:06:09.484Z,26.30
2019-06-07T13:08:38.267Z,26.40
2019-06-07T13:11:16.063Z,26.60
2019-06-07T13:13:38.068Z,26.60
2019-06-07T13:16:06.944Z,26.70
2019-06-07T13:18:35.784Z,26.70
2019-06-07T13:21:04.748Z,26.60
2019-06-07T13:23:33.981Z,26.60
2019-06-07T13:26:02.879Z,26.60
2019-06-07T13:28:31.950Z,26.60
2019-06-07T13:31:00.849Z,26.50
2019-06-07T13:33:35.364Z,26.50
2019-06-07T13:36:00.162Z,26.40
2019-06-07T13:38:29.261Z,26.30
2019-06-07T13:40:58.324Z,26.20
2019-06-07T13:43:28.198Z,26.10
2019-06-07T13:45:57.300Z,26.30
2019-06-07T13:48:27.498Z,26.60
2019-06-07T13:50:56.850Z,26.70
2019-06-07T13:53:25.624Z,26.70
2019-06-07T13:55:55.035Z,26.80
2019-06-07T13:58:24.263Z,26.90
2019-06-07T14:00:53.568Z,27.00
2019-06-07T14:03:27.256Z,27.10
2019-06-07T14:05:53.470Z,27.20
2019-06-07T14:08:23.257Z,27.30
2019-06-07T14:10:52.276Z,27.40
2019-06-07T14:13:21.547Z,27.40
2019-06-07T14:15:50.911Z,27.50
2019-06-07T14:18:20.395Z,27.70
2019-06-07T14:20:50.209Z,27.80
2019-06-07T14:23:37.999Z,28.00
2019-06-07T14:25:49.603Z,28.00
2019-06-07T14:28:18.516Z,28.10
2019-06-07T14:30:47.344Z,28.20
2019-06-07T14:33:16.154Z,28.30
2019-06-07T14:35:44.983Z,28.30
2019-06-07T14:38:13.787Z,28.40
2019-06-07T14:40:42.569Z,28.40
2019-06-07T14:43:11.396Z,28.30
2019-06-07T14:45:40.342Z,28.20
2019-06-07T14:48:09.485Z,28.20
2019-06-07T14:50:38.369Z,28.30
2019-06-07T14:53:07.227Z,28.20
2019-06-07T14:55:36.064Z,28.00
2019-06-07T14:58:05.144Z,27.80
2019-06-07T15:00:42.409Z,27.70
2019-06-07T15:03:11.512Z,27.50
2019-06-07T15:05:40.626Z,27.40
2019-06-07T15:08:10.006Z,27.20
2019-06-07T15:10:39.319Z,27.00
2019-06-07T15:13:08.543Z,26.90
2019-06-07T15:15:38.868Z,26.60
2019-06-07T15:18:08.118Z,26.50
2019-06-07T15:20:38.382Z,26.30
2019-06-07T15:23:07.536Z,26.20
2019-06-07T15:25:36.351Z,26.10
2019-06-07T15:28:05.555Z,26.10
2019-06-07T15:30:35.717Z,26.00
2019-06-07T15:33:05.535Z,26.00
2019-06-07T15:35:36.044Z,26.00
2019-06-07T15:38:05.656Z,25.80
2019-06-07T15:40:35.229Z,25.70
2019-06-07T15:43:04.265Z,25.60
2019-06-07T15:45:33.653Z,25.50
2019-06-07T15:48:02.789Z,25.40
2019-06-07T15:50:32.173Z,25.20
2019-06-07T15:53:01.599Z,25.00
2019-06-07T15:55:33.185Z,24.90
2019-06-07T15:58:01.363Z,24.70
2019-06-07T16:00:31.345Z,24.60
2019-06-07T16:03:01.336Z,24.20
2019-06-07T16:05:31.878Z,23.90
2019-06-07T16:08:00.954Z,23.70
2019-06-07T16:10:29.827Z,23.50
2019-06-07T16:13:00.528Z,23.10
2019-06-07T16:15:29.296Z,22.90
2019-06-07T16:17:58.461Z,22.50
2019-06-07T16:20:27.885Z,22.30
2019-06-07T16:22:57.075Z,22.10
2019-06-07T16:25:25.903Z,22.00
2019-06-07T16:27:55.081Z,21.90
2019-06-07T16:30:24.086Z,21.90
2019-06-07T16:32:53.246Z,21.80
2019-06-07T16:35:22.475Z,21.70
2019-06-07T16:37:52.412Z,21.60
2019-06-07T16:40:21.735Z,21.40
2019-06-07T16:42:51.167Z,21.30
2019-06-07T16:45:20.666Z,21.10
2019-06-07T16:47:49.876Z,20.90
2019-06-07T16:50:19.619Z,20.80
2019-06-07T16:52:48.742Z,20.50
2019-06-07T16:55:17.904Z,20.20
2019-06-07T16:57:46.846Z,20.10
2019-06-07T17:00:15.997Z,19.90
2019-06-07T17:02:45.155Z,19.80
2019-06-07T17:05:15.756Z,19.60
2019-06-07T17:07:46.480Z,19.50
2019-06-07T17:10:15.591Z,19.50
2019-06-07T17:12:44.924Z,19.40
2019-06-07T17:15:15.518Z,19.30
2019-06-07T17:17:45.162Z,19.10
2019-06-07T17:20:14.695Z,18.90
2019-06-07T17:22:44.354Z,18.80
2019-06-07T17:25:16.029Z,18.70
2019-06-07T17:27:46.375Z,18.60
2019-06-07T17:30:16.336Z,18.50
2019-06-07T17:32:55.231Z,18.30
2019-06-07T17:35:17.081Z,18.20
2019-06-07T17:37:47.739Z,18.10
2019-06-07T17:40:18.531Z,18.10
2019-06-07T17:42:48.954Z,18.00
2019-06-07T17:45:18.576Z,17.90
2019-06-07T17:47:47.774Z,17.90
2019-06-07T17:50:17.299Z,17.90
2019-06-07T17:52:47.855Z,17.90
2019-06-07T17:55:17.175Z,17.90
2019-06-07T17:57:46.509Z,17.90
2019-06-07T18:00:33.462Z,17.80
2019-06-07T18:02:48.795Z,17.80
2019-06-07T18:05:24.549Z,17.80
2019-06-07T18:07:54.894Z,17.80
2019-06-07T18:10:37.747Z,17.80
2019-06-07T18:13:06.924Z,17.80
2019-06-07T18:15:41.319Z,17.80
2019-06-07T18:18:10.287Z,17.80
2019-06-07T18:20:39.710Z,17.70
2019-06-07T18:23:09.151Z,17.70
2019-06-07T18:25:38.307Z,17.60
2019-06-07T18:28:08.264Z,17.60
2019-06-07T18:30:37.394Z,17.60
2019-06-07T18:33:08.163Z,17.50
2019-06-07T18:35:37.332Z,17.50
2019-06-07T18:38:06.705Z,17.50
2019-06-07T18:40:35.716Z,17.40
2019-06-07T18:43:04.754Z,17.40
2019-06-07T18:45:33.995Z,17.30
2019-06-07T18:48:02.856Z,17.30
2019-06-07T18:50:31.981Z,17.20
2019-06-07T18:53:01.047Z,17.20
2019-06-07T18:55:29.907Z,17.20
2019-06-07T18:57:58.706Z,17.10
2019-06-07T19:00:29.560Z,17.10
2019-06-07T19:02:58.496Z,17.10
2019-06-07T19:05:27.412Z,17.00
2019-06-07T19:07:56.706Z,17.00
2019-06-07T19:10:27.438Z,17.00
2019-06-07T19:12:57.418Z,17.00
2019-06-07T19:15:27.563Z,17.00
2019-06-07T19:17:56.487Z,16.90
2019-06-07T19:20:27.269Z,16.90
2019-06-07T19:22:56.486Z,17.00
2019-06-07T19:25:26.109Z,16.90
2019-06-07T19:27:55.106Z,16.90
2019-06-07T19:30:24.372Z,16.80
2019-06-07T19:32:53.246Z,16.80
2019-06-07T19:35:22.410Z,16.80
2019-06-07T19:37:51.771Z,16.80
2019-06-07T19:40:21.585Z,16.80
2019-06-07T19:42:50.397Z,16.80
2019-06-07T19:45:34.759Z,16.70
2019-06-07T19:47:50.272Z,16.70
2019-06-07T19:50:19.708Z,16.70
2019-06-07T19:52:48.878Z,16.70
2019-06-07T19:55:18.005Z,16.70
2019-06-07T19:57:49.983Z,16.70
2019-06-07T20:00:19.196Z,16.70
2019-06-07T20:02:48.003Z,16.60
2019-06-07T20:05:16.980Z,16.60
2019-06-07T20:07:46.114Z,16.60
2019-06-07T20:10:16.478Z,16.60
2019-06-07T20:12:45.596Z,16.60
2019-06-07T20:15:27.836Z,16.60
2019-06-07T20:17:45.327Z,16.60
2019-06-07T20:20:14.328Z,16.60
2019-06-07T20:22:43.384Z,16.60
2019-06-07T20:25:12.861Z,16.60
2019-06-07T20:27:41.661Z,16.50
2019-06-07T20:30:11.327Z,16.50
2019-06-07T20:32:40.934Z,16.50
2019-06-07T20:35:10.411Z,16.50
2019-06-07T20:37:39.562Z,16.40
2019-06-07T20:40:23.591Z,16.40
2019-06-07T20:42:41.077Z,16.40
2019-06-07T20:45:10.539Z,16.40
2019-06-07T20:47:40.664Z,16.40
2019-06-07T20:50:09.630Z,16.40
2019-06-07T20:52:39.224Z,16.30
2019-06-07T20:55:09.467Z,16.30
2019-06-07T20:57:38.653Z,16.30
2019-06-07T21:00:14.678Z,16.30
2019-06-07T21:02:39.371Z,16.20
2019-06-07T21:05:09.734Z,16.20
2019-06-07T21:07:39.218Z,16.10
2019-06-07T21:10:10.618Z,16.10
2019-06-07T21:12:39.984Z,16.10
2019-06-07T21:15:12.733Z,16.00
2019-06-07T21:17:40.213Z,16.00
2019-06-07T21:20:13.666Z,16.00
2019-06-07T21:22:40.193Z,15.90
2019-06-07T21:25:09.809Z,15.90
2019-06-07T21:27:40.407Z,15.90
2019-06-07T21:30:09.744Z,15.90
2019-06-07T21:32:39.741Z,15.80
2019-06-07T21:35:10.527Z,15.80
2019-06-07T21:37:39.401Z,15.80
2019-06-07T21:40:10.343Z,15.80
2019-06-07T21:42:39.734Z,15.80
2019-06-07T21:45:09.943Z,15.80
2019-06-07T21:47:40.594Z,15.80
2019-06-07T21:50:10.837Z,15.80
2019-06-07T21:52:39.883Z,15.70
2019-06-07T21:55:09.303Z,15.70
2019-06-07T21:57:38.470Z,15.70
2019-06-07T22:00:13.421Z,15.70
2019-06-07T22:02:42.891Z,15.60
2019-06-07T22:05:12.044Z,15.60
2019-06-07T22:07:40.887Z,15.60
2019-06-07T22:10:10.171Z,15.60
2019-06-07T22:12:41.096Z,15.60
2019-06-07T22:15:29.074Z,15.60
2019-06-07T22:17:41.115Z,15.60
2019-06-07T22:20:10.898Z,15.60
2019-06-07T22:22:39.947Z,15.60
2019-06-07T22:25:09.311Z,15.60
2019-06-07T22:27:38.261Z,15.60
2019-06-07T22:30:08.707Z,15.60
2019-06-07T22:32:37.990Z,15.60
2019-06-07T22:35:07.081Z,15.60
2019-06-07T22:37:36.065Z,15.70
2019-06-07T22:40:06.307Z,15.70
2019-06-07T22:42:35.590Z,15.70
2019-06-07T22:45:04.675Z,15.70
2019-06-07T22:47:34.105Z,15.70
2019-06-07T22:50:03.508Z,15.70
2019-06-07T22:52:33.130Z,15.70
2019-06-07T22:55:02.000Z,15.80
2019-06-07T22:57:46.789Z,15.80
2019-06-07T23:00:18.139Z,15.70
2019-06-07T23:02:46.570Z,15.70
2019-06-07T23:05:16.772Z,15.80
2019-06-07T23:07:45.883Z,15.70
2019-06-07T23:10:15.445Z,15.70
2019-06-07T23:12:44.744Z,15.70
2019-06-07T23:15:13.979Z,15.70
2019-06-07T23:17:42.819Z,15.70
2019-06-07T23:20:13.787Z,15.70
2019-06-07T23:22:43.002Z,15.70
2019-06-07T23:25:12.358Z,15.70
2019-06-07T23:27:41.747Z,15.70
2019-06-07T23:30:12.395Z,15.70
2019-06-07T23:32:41.451Z,15.70
2019-06-07T23:35:10.784Z,15.70
2019-06-07T23:37:40.272Z,15.70
2019-06-07T23:40:11.146Z,15.70
2019-06-07T23:42:40.266Z,15.70
2019-06-07T23:45:09.294Z,15.60
2019-06-07T23:47:38.087Z,15.60
2019-06-07T23:50:07.438Z,15.60
2019-06-07T23:52:36.908Z,15.60
2019-06-07T23:55:06.026Z,15.60
2019-06-07T23:57:34.834Z,15.60
